Terminal Aerodrome Forecast
Issued by NWS

Home | Current Version | Previous Version | Text Only | Print | Product List | Glossary On
Versions: 1 2 3 4 5 6 7 8 9 10 11 12 13
248
FTUS46 KHNX 180538
TAFFAT
TAF
KFAT 180538Z 1806/1906 28006KT P6SM BKN050
     FM181200 VRB03KT 5SM BR SCT050
      TEMPO 1813/1817 2SM BR
     FM182000 VRB04KT P6SM SKC=

USA.gov is the U.S. government's official web portal to all federal, state and local government web resources and services.